Time;durP1;ratioP1;P1;durP2;ratioP2;P2;SDS_P1;SDS_P2;PMS_P1;PMS_P2;Temp;Humidity;BMP_temperature;BMP_pressure;BME280_temperature;BME280_humidity;BME280_pressure;Samples;Min_cycle;Max_cycle;Signal;HPM_P1;HPM_P2
2023/10/28 00:00:02;;;;;;;0.75;0.70;;;18.50;58.80;;;;;;5129455;27;45184;-73
2023/10/28 00:02:29;;;;;;;0.85;0.63;;;18.50;58.80;;;;;;5129445;27;45247;-73
2023/10/28 00:04:58;;;;;;;0.90;0.70;;;18.50;58.90;;;;;;5129325;27;45191;-73
2023/10/28 00:07:25;;;;;;;1.30;0.98;;;18.50;59.00;;;;;;5129343;27;46371;-73
2023/10/28 00:09:52;;;;;;;1.77;0.90;;;18.50;58.90;;;;;;5129225;27;45296;-73
2023/10/28 00:12:22;;;;;;;2.60;0.77;;;18.50;58.90;;;;;;5129314;27;45399;-73
2023/10/28 00:14:49;;;;;;;1.20;0.65;;;18.40;58.80;;;;;;5129564;27;45450;-73
2023/10/28 00:17:15;;;;;;;0.95;0.90;;;18.40;58.90;;;;;;5126602;27;45341;-73
2023/10/28 00:19:43;;;;;;;1.70;0.80;;;18.40;58.90;;;;;;5129212;27;45110;-73
2023/10/28 00:22:10;;;;;;;1.25;0.70;;;18.40;58.90;;;;;;5129011;27;45267;-73
2023/10/28 00:24:37;;;;;;;2.10;0.70;;;18.40;58.90;;;;;;5129402;27;45255;-73
2023/10/28 00:27:04;;;;;;;1.08;0.98;;;18.40;58.90;;;;;;5128809;27;46269;-73
2023/10/28 00:29:32;;;;;;;1.60;1.05;;;18.40;58.90;;;;;;5129081;27;45400;-73
2023/10/28 00:31:59;;;;;;;2.67;0.90;;;18.40;59.00;;;;;;5129215;27;45196;-71
2023/10/28 00:34:26;;;;;;;1.67;0.70;;;18.30;59.00;;;;;;5129177;27;45193;-73
2023/10/28 00:36:53;;;;;;;1.15;0.60;;;18.30;59.10;;;;;;5141944;27;45658;-72
2023/10/28 00:39:20;;;;;;;0.95;0.75;;;18.30;59.10;;;;;;5149414;27;45256;-72
2023/10/28 00:41:47;;;;;;;1.48;0.95;;;18.30;59.10;;;;;;5149937;27;45283;-73
2023/10/28 00:44:15;;;;;;;1.17;0.80;;;18.30;59.10;;;;;;5149906;27;45363;-73
2023/10/28 00:46:44;;;;;;;0.50;0.50;;;18.30;59.10;;;;;;5149430;27;46648;-72
2023/10/28 00:49:10;;;;;;;0.95;0.65;;;18.30;59.20;;;;;;5149769;27;45351;-73
2023/10/28 00:51:38;;;;;;;0.82;0.82;;;18.30;59.20;;;;;;5149306;27;45233;-73
2023/10/28 00:54:05;;;;;;;0.70;0.70;;;18.30;59.80;;;;;;5149441;27;45309;-73
2023/10/28 00:56:32;;;;;;;0.88;0.70;;;18.20;59.10;;;;;;5149733;27;46373;-73
2023/10/28 00:58:58;;;;;;;1.27;0.90;;;18.20;59.20;;;;;;5149626;27;45222;-73
2023/10/28 01:01:26;;;;;;;1.77;0.70;;;18.20;59.20;;;;;;5149615;27;45351;-73
2023/10/28 01:03:54;;;;;;;0.93;0.60;;;18.20;59.20;;;;;;5149643;27;45387;-73
2023/10/28 01:06:21;;;;;;;0.70;0.70;;;18.20;59.20;;;;;;5149343;27;45213;-73
2023/10/28 01:08:48;;;;;;;2.47;0.80;;;18.10;59.20;;;;;;5149177;27;45457;-72
2023/10/28 01:11:14;;;;;;;1.10;0.65;;;18.10;59.20;;;;;;5149088;27;45302;-73
2023/10/28 01:13:42;;;;;;;1.17;0.80;;;18.10;59.30;;;;;;5149520;27;45244;-73
2023/10/28 01:16:09;;;;;;;0.77;0.73;;;18.10;59.30;;;;;;5149157;27;45291;-73
2023/10/28 01:18:35;;;;;;;0.68;0.60;;;18.10;59.30;;;;;;5146634;27;45201;-73
2023/10/28 01:21:09;;;;;;;0.70;0.70;;;18.10;59.30;;;;;;5148531;27;45298;-72
2023/10/28 01:23:36;;;;;;;0.77;0.65;;;18.10;59.30;;;;;;5148809;27;45114;-72
2023/10/28 01:26:03;;;;;;;1.67;0.80;;;18.10;59.30;;;;;;5140749;27;46701;-72
2023/10/28 01:28:30;;;;;;;1.50;0.77;;;18.10;59.30;;;;;;5128375;27;45298;-72
2023/10/28 01:30:57;;;;;;;1.65;0.73;;;18.10;59.30;;;;;;5128153;27;45306;-73
2023/10/28 01:33:24;;;;;;;2.60;0.80;;;18.10;59.40;;;;;;5127788;27;45193;-72
2023/10/28 01:35:51;;;;;;;1.55;0.63;;;18.00;59.30;;;;;;5122653;27;46476;-73
2023/10/28 01:38:23;;;;;;;0.95;0.60;;;18.00;59.30;;;;;;5107314;27;45454;-71
2023/10/28 01:40:50;;;;;;;1.45;0.90;;;18.00;59.30;;;;;;5107392;27;45263;-73
2023/10/28 01:43:18;;;;;;;2.05;0.70;;;18.00;59.30;;;;;;5107502;27;45453;-73
2023/10/28 01:45:45;;;;;;;0.80;0.63;;;18.00;59.30;;;;;;5107439;27;46467;-73
2023/10/28 01:48:12;;;;;;;0.75;0.75;;;18.00;59.30;;;;;;5107151;27;45379;-73
2023/10/28 01:50:39;;;;;;;0.47;0.47;;;18.00;59.30;;;;;;5107487;27;45278;-72
2023/10/28 01:53:05;;;;;;;2.60;0.63;;;18.00;59.40;;;;;;5107720;27;45194;-73
2023/10/28 01:55:34;;;;;;;0.60;0.60;;;18.00;59.40;;;;;;5107389;27;47299;-72
2023/10/28 01:58:01;;;;;;;2.00;0.70;;;17.90;59.30;;;;;;5107016;27;45341;-72
2023/10/28 02:00:30;;;;;;;0.73;0.60;;;17.90;59.30;;;;;;5107259;27;45236;-73
2023/10/28 02:02:57;;;;;;;0.90;0.60;;;17.90;59.40;;;;;;5110207;27;45490;-73
2023/10/28 02:05:25;;;;;;;0.52;0.52;;;18.00;59.40;;;;;;5131128;27;48782;-73
2023/10/28 02:07:51;;;;;;;0.63;0.63;;;17.90;59.40;;;;;;5130981;27;45287;-73
2023/10/28 02:10:18;;;;;;;0.40;0.40;;;17.90;59.40;;;;;;5131222;27;45255;-73
2023/10/28 02:12:48;;;;;;;0.60;0.60;;;17.90;59.40;;;;;;5131556;27;45390;-72
2023/10/28 02:15:15;;;;;;;0.45;0.45;;;17.90;59.40;;;;;;5131370;27;46539;-73
2023/10/28 02:17:42;;;;;;;1.15;0.60;;;17.90;59.40;;;;;;5131091;27;45433;-73
2023/10/28 02:20:11;;;;;;;1.13;0.80;;;17.90;59.40;;;;;;5131447;27;45193;-73
2023/10/28 02:22:38;;;;;;;0.50;0.50;;;17.90;59.40;;;;;;5131611;27;45521;-72
2023/10/28 02:25:06;;;;;;;1.20;0.80;;;17.90;59.40;;;;;;5131091;27;45315;-73
2023/10/28 02:27:34;;;;;;;1.15;0.63;;;17.80;59.30;;;;;;5131070;27;45265;-73
2023/10/28 02:30:03;;;;;;;1.33;0.50;;;17.80;59.30;;;;;;5131211;27;45317;-73
2023/10/28 02:32:30;;;;;;;1.40;0.70;;;17.80;59.40;;;;;;5130913;27;45328;-72
2023/10/28 02:34:59;;;;;;;0.75;0.60;;;17.80;59.40;;;;;;5130928;27;45318;-73
2023/10/28 02:37:26;;;;;;;1.77;0.73;;;17.80;59.40;;;;;;5150022;27;45436;-73
2023/10/28 02:39:53;;;;;;;0.30;0.30;;;17.80;59.40;;;;;;5151840;27;45330;-73
2023/10/28 02:42:22;;;;;;;0.73;0.68;;;17.80;59.40;;;;;;5151920;27;45398;-73
2023/10/28 02:44:50;;;;;;;0.70;0.50;;;17.80;59.40;;;;;;5151530;27;45571;-73
2023/10/28 02:47:18;;;;;;;0.68;0.38;;;17.80;59.40;;;;;;5151710;27;45247;-73
2023/10/28 02:49:45;;;;;;;0.73;0.73;;;17.80;59.40;;;;;;5151446;27;45363;-73
2023/10/28 02:52:12;;;;;;;0.50;0.40;;;17.70;59.40;;;;;;5151814;27;45395;-72
2023/10/28 02:54:39;;;;;;;0.60;0.60;;;17.70;59.40;;;;;;5150878;27;47395;-72
2023/10/28 02:57:06;;;;;;;2.25;0.50;;;17.70;59.40;;;;;;5151200;27;45125;-73
2023/10/28 02:59:33;;;;;;;0.98;0.47;;;17.70;59.40;;;;;;5151731;27;45210;-73
2023/10/28 03:02:00;;;;;;;1.17;0.70;;;17.70;59.50;;;;;;5151555;27;45427;-72
2023/10/28 03:04:28;;;;;;;0.93;0.60;;;17.70;59.40;;;;;;5135256;27;46698;-73
2023/10/28 03:06:55;;;;;;;1.42;0.68;;;17.70;59.40;;;;;;5130479;27;45216;-73
2023/10/28 03:09:21;;;;;;;0.93;0.50;;;17.70;59.50;;;;;;5130605;27;45315;-73
2023/10/28 03:11:48;;;;;;;0.65;0.50;;;17.70;59.50;;;;;;5128111;27;45542;-72
2023/10/28 03:14:15;;;;;;;1.55;0.80;;;17.70;59.50;;;;;;5130333;27;45304;-74
2023/10/28 03:16:44;;;;;;;0.60;0.60;;;17.70;59.40;;;;;;5129379;27;45312;-73
2023/10/28 03:19:11;;;;;;;1.25;0.55;;;17.70;59.50;;;;;;5130380;27;45184;-73
2023/10/28 03:21:40;;;;;;;0.80;0.60;;;17.60;59.50;;;;;;5130585;27;45240;-73
2023/10/28 03:24:07;;;;;;;0.60;0.60;;;17.60;59.50;;;;;;5129985;27;45360;-73
2023/10/28 03:26:34;;;;;;;0.50;0.47;;;17.60;59.50;;;;;;5130194;27;45201;-73
2023/10/28 03:29:01;;;;;;;0.85;0.50;;;17.60;59.50;;;;;;5130205;27;45251;-73
2023/10/28 03:31:28;;;;;;;0.73;0.30;;;17.60;59.50;;;;;;5130118;27;45282;-73
2023/10/28 03:33:55;;;;;;;0.50;0.50;;;17.60;59.50;;;;;;5129406;27;46850;-73
2023/10/28 03:36:22;;;;;;;1.25;0.57;;;17.60;59.50;;;;;;5139518;27;45274;-72
2023/10/28 03:38:50;;;;;;;0.47;0.47;;;17.60;59.50;;;;;;5150333;27;45252;-72
2023/10/28 03:41:17;;;;;;;0.50;0.50;;;17.50;59.50;;;;;;5140503;27;45315;-72
2023/10/28 03:43:44;;;;;;;0.60;0.60;;;17.50;59.40;;;;;;5129621;27;45322;-73
2023/10/28 03:46:16;;;;;;;1.13;0.50;;;17.50;59.40;;;;;;5129855;27;45374;-72
2023/10/28 03:48:43;;;;;;;0.65;0.57;;;17.50;59.50;;;;;;5129923;27;45260;-72
2023/10/28 03:51:10;;;;;;;0.50;0.50;;;17.50;59.50;;;;;;5130032;27;45328;-73
2023/10/28 03:53:36;;;;;;;0.52;0.52;;;17.50;59.40;;;;;;5129585;27;45352;-73
2023/10/28 03:56:06;;;;;;;1.05;0.60;;;17.50;59.40;;;;;;5129629;27;45360;-73
2023/10/28 03:58:33;;;;;;;0.65;0.60;;;17.50;59.50;;;;;;5129885;27;45318;-73
2023/10/28 04:01:00;;;;;;;0.50;0.50;;;17.50;59.50;;;;;;5129733;27;45628;-73
2023/10/28 04:03:27;;;;;;;2.15;0.70;;;17.50;59.50;;;;;;5129437;27;45264;-73
2023/10/28 04:05:54;;;;;;;1.80;0.80;;;17.50;59.50;;;;;;5129428;27;45351;-73
2023/10/28 04:08:21;;;;;;;1.50;0.63;;;17.40;59.50;;;;;;5129553;27;45244;-73
2023/10/28 04:10:48;;;;;;;0.35;0.35;;;17.50;59.40;;;;;;5129472;27;45494;-73
2023/10/28 04:13:16;;;;;;;0.50;0.50;;;17.50;59.30;;;;;;5129322;27;46371;-73
2023/10/28 04:15:43;;;;;;;0.73;0.50;;;17.60;59.30;;;;;;5129282;27;45347;-73
2023/10/28 04:18:10;;;;;;;1.02;0.63;;;17.60;59.20;;;;;;5129722;27;45358;-73
2023/10/28 04:20:37;;;;;;;0.47;0.20;;;17.70;59.00;;;;;;5129501;27;45343;-73
2023/10/28 04:23:05;;;;;;;0.82;0.50;;;17.80;58.80;;;;;;5128851;27;47287;-73
2023/10/28 04:25:32;;;;;;;0.70;0.60;;;17.90;58.60;;;;;;5128365;27;45308;-72
2023/10/28 04:27:58;;;;;;;1.05;0.50;;;18.00;58.40;;;;;;5128339;27;45206;-72
2023/10/28 04:30:27;;;;;;;0.30;0.30;;;18.10;58.20;;;;;;5129395;27;45262;-72
2023/10/28 04:32:53;;;;;;;0.60;0.47;;;18.20;58.60;;;;;;5128384;27;46730;-72
2023/10/28 04:35:20;;;;;;;0.40;0.40;;;18.20;57.80;;;;;;5129596;27;45290;-73
2023/10/28 04:37:47;;;;;;;1.58;0.50;;;18.30;57.50;;;;;;5150054;27;45219;-73
2023/10/28 04:40:14;;;;;;;0.47;0.40;;;18.40;57.30;;;;;;5148932;27;45248;-72
2023/10/28 04:42:41;;;;;;;0.50;0.50;;;18.50;57.10;;;;;;5128831;27;45290;-73
2023/10/28 04:45:10;;;;;;;1.25;0.57;;;18.60;56.90;;;;;;5128873;27;45361;-73
2023/10/28 04:47:38;;;;;;;0.55;0.55;;;18.70;56.70;;;;;;5128906;27;45282;-73
2023/10/28 04:50:05;;;;;;;0.52;0.30;;;18.80;56.60;;;;;;5129014;27;45360;-73
2023/10/28 04:52:32;;;;;;;1.30;0.60;;;18.80;56.40;;;;;;5128767;27;46186;-73
2023/10/28 04:54:59;;;;;;;0.30;0.30;;;18.90;56.20;;;;;;5128744;27;45208;-73
2023/10/28 04:57:26;;;;;;;0.38;0.38;;;19.00;56.20;;;;;;5128670;27;45428;-73
2023/10/28 04:59:53;;;;;;;0.57;0.50;;;19.00;56.00;;;;;;5128907;27;45368;-73
2023/10/28 05:02:20;;;;;;;0.45;0.43;;;19.10;56.00;;;;;;5128552;27;46682;-73
2023/10/28 05:04:48;;;;;;;0.52;0.52;;;19.10;55.80;;;;;;5128598;27;45282;-73
2023/10/28 05:07:15;;;;;;;0.68;0.40;;;19.20;55.70;;;;;;5128318;27;45371;-72
2023/10/28 05:09:42;;;;;;;0.40;0.40;;;19.20;55.60;;;;;;5127980;27;45333;-72
2023/10/28 05:12:09;;;;;;;1.42;0.32;;;19.30;55.60;;;;;;5128316;27;46436;-72
2023/10/28 05:14:36;;;;;;;0.57;0.50;;;19.30;55.50;;;;;;5128309;27;45252;-73
2023/10/28 05:17:03;;;;;;;0.40;0.40;;;19.40;55.50;;;;;;5128083;27;45344;-72
2023/10/28 05:19:30;;;;;;;0.50;0.40;;;19.40;55.40;;;;;;5128825;27;45126;-72
2023/10/28 05:22:01;;;;;;;0.45;0.45;;;19.40;55.30;;;;;;5128139;27;46441;-72
2023/10/28 05:24:29;;;;;;;0.77;0.47;;;19.50;55.20;;;;;;5128219;27;45201;-72
2023/10/28 05:26:57;;;;;;;0.32;0.30;;;19.50;55.10;;;;;;5128465;27;45303;-72
2023/10/28 05:29:24;;;;;;;0.30;0.30;;;19.60;55.10;;;;;;5128326;27;45339;-72
2023/10/28 05:31:50;;;;;;;0.68;0.45;;;19.50;55.00;;;;;;5128158;27;45567;-72
2023/10/28 05:34:19;;;;;;;0.50;0.50;;;19.60;55.00;;;;;;5127795;27;45254;-72
2023/10/28 05:36:45;;;;;;;0.88;0.63;;;19.60;55.00;;;;;;5141160;27;45167;-72
2023/10/28 05:39:14;;;;;;;0.40;0.40;;;19.60;54.90;;;;;;5148691;27;45293;-72
2023/10/28 05:41:40;;;;;;;0.20;0.20;;;19.70;54.80;;;;;;5148746;27;45302;-72
2023/10/28 05:44:07;;;;;;;0.30;0.25;;;19.70;54.70;;;;;;5148887;27;45232;-72
2023/10/28 05:46:34;;;;;;;0.38;0.38;;;19.70;54.70;;;;;;5148943;27;44699;-72
2023/10/28 05:49:01;;;;;;;0.95;0.40;;;19.70;54.60;;;;;;5149201;27;45191;-73
2023/10/28 05:51:29;;;;;;;0.30;0.30;;;19.80;54.60;;;;;;5148222;27;45897;-72
2023/10/28 05:53:57;;;;;;;0.40;0.40;;;19.80;54.60;;;;;;5148073;27;45330;-72
2023/10/28 05:56:25;;;;;;;0.30;0.30;;;19.80;54.60;;;;;;5149044;27;45260;-73
2023/10/28 05:58:52;;;;;;;0.90;0.60;;;19.80;54.50;;;;;;5149112;27;45347;-72
2023/10/28 06:01:19;;;;;;;0.38;0.38;;;19.90;54.50;;;;;;5148636;27;46557;-72
2023/10/28 06:03:46;;;;;;;0.40;0.40;;;19.90;54.40;;;;;;5148541;27;45412;-73
2023/10/28 06:06:13;;;;;;;0.30;0.30;;;19.90;54.40;;;;;;5149196;27;45242;-73
2023/10/28 06:08:40;;;;;;;0.20;0.20;;;19.90;54.30;;;;;;5148715;27;45172;-72
2023/10/28 06:11:09;;;;;;;0.32;0.28;;;19.90;54.30;;;;;;5148464;27;46396;-72
2023/10/28 06:13:37;;;;;;;0.30;0.30;;;19.90;54.30;;;;;;5148473;27;45296;-73
2023/10/28 06:16:04;;;;;;;0.40;0.40;;;19.90;54.80;;;;;;5148543;27;45317;-73
2023/10/28 06:18:31;;;;;;;0.40;0.40;;;20.00;54.20;;;;;;5134024;27;45355;-73
2023/10/28 06:20:58;;;;;;;0.43;0.40;;;20.00;54.10;;;;;;5127354;27;46399;-73
2023/10/28 06:23:25;;;;;;;0.40;0.40;;;20.00;54.10;;;;;;5127051;27;45323;-73
2023/10/28 06:25:52;;;;;;;0.73;0.43;;;20.10;54.10;;;;;;5127611;27;45296;-72
2023/10/28 06:28:19;;;;;;;0.73;0.50;;;20.00;54.00;;;;;;5127892;27;45260;-72
2023/10/28 06:30:48;;;;;;;0.47;0.32;;;20.10;54.10;;;;;;5127275;27;45202;-73
2023/10/28 06:33:15;;;;;;;0.20;0.20;;;20.10;54.00;;;;;;5127140;27;45294;-73
2023/10/28 06:35:41;;;;;;;0.30;0.30;;;20.10;54.00;;;;;;5131346;27;45212;-73
2023/10/28 06:38:08;;;;;;;0.38;0.30;;;20.10;53.90;;;;;;5147740;27;45505;-74
2023/10/28 06:40:37;;;;;;;0.70;0.40;;;20.20;53.90;;;;;;5148041;27;46680;-73
2023/10/28 06:43:04;;;;;;;0.30;0.30;;;20.20;53.90;;;;;;5148106;27;45390;-73
2023/10/28 06:45:31;;;;;;;0.40;0.40;;;20.20;53.90;;;;;;5147941;27;45329;-73
2023/10/28 06:47:59;;;;;;;0.45;0.40;;;20.20;53.90;;;;;;5148441;27;45278;-73
2023/10/28 06:50:26;;;;;;;0.50;0.40;;;20.20;53.80;;;;;;5148495;27;46688;-73
2023/10/28 06:52:53;;;;;;;2.55;0.30;;;20.20;53.80;;;;;;5151482;27;45313;-71
2023/10/28 06:55:20;;;;;;;0.70;0.43;;;20.20;53.90;;;;;;5138535;27;45299;-72
2023/10/28 06:57:47;;;;;;;2.00;0.50;;;20.20;53.50;;;;;;5131160;27;45169;-73
2023/10/28 07:00:15;;;;;;;9.38;0.80;;;20.20;53.60;;;;;;5130491;27;46668;-68
2023/10/28 07:02:42;;;;;;;2.05;0.50;;;20.20;53.70;;;;;;5130485;27;45501;-72
2023/10/28 07:05:10;;;;;;;1.80;0.60;;;20.20;54.00;;;;;;5130908;27;45285;-72
2023/10/28 07:07:37;;;;;;;1.15;0.50;;;20.20;54.80;;;;;;5130775;27;45474;-69
2023/10/28 07:10:05;;;;;;;2.10;0.77;;;20.20;54.40;;;;;;5130228;27;46365;-72
2023/10/28 07:12:32;;;;;;;0.82;0.30;;;20.20;54.90;;;;;;5130460;27;45303;-71
2023/10/28 07:14:59;;;;;;;1.05;0.55;;;20.20;54.80;;;;;;5130543;27;45204;-70
2023/10/28 07:17:26;;;;;;;0.85;0.40;;;20.30;54.80;;;;;;5130099;27;45424;-72
2023/10/28 07:19:53;;;;;;;3.85;0.57;;;20.30;54.60;;;;;;5130437;27;47589;-72
2023/10/28 07:22:22;;;;;;;2.38;0.65;;;20.30;54.60;;;;;;5130283;27;45183;-68
2023/10/28 07:24:49;;;;;;;2.67;0.50;;;20.30;54.80;;;;;;5130036;27;45319;-72
2023/10/28 07:27:18;;;;;;;1.85;0.70;;;20.30;55.00;;;;;;5130399;27;45304;-71
2023/10/28 07:29:45;;;;;;;10.82;1.73;;;20.40;55.00;;;;;;5130250;27;45477;-72
2023/10/28 07:32:11;;;;;;;8.07;1.15;;;20.40;55.30;;;;;;5130040;27;45165;-69
2023/10/28 07:34:39;;;;;;;4.75;0.95;;;20.40;53.50;;;;;;5129739;27;45244;-72
2023/10/28 07:37:06;;;;;;;2.90;1.02;;;20.40;53.20;;;;;;5130023;27;45471;-72
2023/10/28 07:39:34;;;;;;;4.97;0.85;;;20.30;53.30;;;;;;5129791;27;45474;-72
2023/10/28 07:42:01;;;;;;;10.65;1.98;;;20.40;53.50;;;;;;5129794;27;45201;-72
2023/10/28 07:44:28;;;;;;;4.90;0.95;;;20.40;53.70;;;;;;5127585;27;45235;-73
2023/10/28 07:46:55;;;;;;;1.45;0.63;;;20.40;53.50;;;;;;5126629;27;45535;-72
2023/10/28 07:49:21;;;;;;;3.50;1.05;;;20.40;53.60;;;;;;5129431;27;46710;-72
2023/10/28 07:51:48;;;;;;;3.42;1.02;;;20.40;53.40;;;;;;5129615;27;45317;-72
2023/10/28 07:54:15;;;;;;;8.85;1.02;;;20.40;53.40;;;;;;5129417;27;45299;-72
2023/10/28 07:56:43;;;;;;;2.65;0.55;;;20.40;52.40;;;;;;5129701;27;45211;-72
2023/10/28 07:59:10;;;;;;;1.90;0.70;;;20.40;51.60;;;;;;5129685;27;45431;-68
2023/10/28 08:01:39;;;;;;;2.63;0.63;;;20.40;51.70;;;;;;5129533;27;45446;-70
2023/10/28 08:04:06;;;;;;;3.67;1.02;;;20.40;51.50;;;;;;5128819;27;45322;-71
2023/10/28 08:06:33;;;;;;;3.53;0.90;;;20.40;51.30;;;;;;5130037;27;45359;-72
2023/10/28 08:09:00;;;;;;;4.68;0.88;;;20.40;51.00;;;;;;5129772;27;45440;-71
2023/10/28 08:11:29;;;;;;;2.92;0.93;;;20.40;50.60;;;;;;5129346;27;45290;-71
2023/10/28 08:13:58;;;;;;;4.65;0.63;;;20.40;50.80;;;;;;5129154;27;45337;-72
2023/10/28 08:16:24;;;;;;;1.80;0.80;;;20.40;50.20;;;;;;5128996;27;45339;-72
2023/10/28 08:18:52;;;;;;;3.92;1.10;;;20.40;50.10;;;;;;5128899;27;45409;-72
2023/10/28 08:21:19;;;;;;;3.38;0.70;;;20.40;50.10;;;;;;5128980;27;45267;-73
2023/10/28 08:23:46;;;;;;;4.07;0.80;;;20.40;50.00;;;;;;5128955;27;45280;-74
2023/10/28 08:26:17;;;;;;;2.35;0.68;;;20.40;49.80;;;;;;5129074;27;45232;-73
2023/10/28 08:28:44;;;;;;;2.63;0.73;;;20.50;50.40;;;;;;5128801;27;45296;-72
2023/10/28 08:31:12;;;;;;;3.40;0.82;;;20.50;50.80;;;;;;5128359;27;45240;-71
2023/10/28 08:33:41;;;;;;;4.25;0.80;;;20.60;50.90;;;;;;5128593;27;45335;-71
2023/10/28 08:36:09;;;;;;;5.93;1.08;;;20.70;51.10;;;;;;5136814;27;45294;-72
2023/10/28 08:38:36;;;;;;;3.38;0.90;;;20.70;51.30;;;;;;5149651;27;46271;-78
2023/10/28 08:41:04;;;;;;;2.58;1.00;;;20.70;51.50;;;;;;5149634;27;45294;-70
2023/10/28 08:43:33;;;;;;;4.30;1.20;;;20.70;51.90;;;;;;5148744;27;45351;-74
2023/10/28 08:46:01;;;;;;;6.25;1.00;;;20.80;52.00;;;;;;5149866;27;45250;-72
2023/10/28 08:48:30;;;;;;;3.55;0.80;;;20.80;52.10;;;;;;5149522;27;46718;-70
2023/10/28 08:50:59;;;;;;;1.30;0.70;;;20.90;52.90;;;;;;5149646;27;45296;-73
2023/10/28 08:53:26;;;;;;;2.20;0.70;;;20.90;52.30;;;;;;5149401;27;45192;-76
2023/10/28 08:55:53;;;;;;;7.97;1.15;;;21.00;52.40;;;;;;5149181;27;45200;-71
2023/10/28 08:58:21;;;;;;;5.10;0.90;;;21.00;52.40;;;;;;5149241;27;45780;-75
2023/10/28 09:00:48;;;;;;;3.17;0.75;;;21.00;52.50;;;;;;5149415;27;45373;-76
2023/10/28 09:03:15;;;;;;;2.92;0.77;;;21.00;52.60;;;;;;5149724;27;45183;-74
2023/10/28 09:05:44;;;;;;;2.20;0.80;;;21.00;52.70;;;;;;5149552;27;45183;-71
2023/10/28 09:08:10;;;;;;;3.92;1.00;;;21.10;52.80;;;;;;5148954;27;45353;-75
2023/10/28 09:10:37;;;;;;;5.25;0.90;;;21.10;52.90;;;;;;5149659;27;45329;-71
2023/10/28 09:13:07;;;;;;;4.18;1.15;;;21.10;53.00;;;;;;5148669;27;45219;-76
2023/10/28 09:15:35;;;;;;;3.58;0.90;;;21.10;53.10;;;;;;5149516;27;45195;-73
2023/10/28 09:18:02;;;;;;;3.67;1.17;;;21.20;53.20;;;;;;5148925;27;45340;-71
2023/10/28 09:20:29;;;;;;;2.40;0.98;;;21.20;53.10;;;;;;5149060;27;45355;-74
2023/10/28 09:22:57;;;;;;;4.60;1.00;;;21.30;53.20;;;;;;5138074;27;45306;-74
2023/10/28 09:25:24;;;;;;;9.52;1.67;;;21.30;53.10;;;;;;5128711;27;45466;-72
2023/10/28 09:27:51;;;;;;;4.57;0.90;;;21.30;53.30;;;;;;5127323;27;45536;-73
2023/10/28 09:30:18;;;;;;;14.63;1.00;;;21.40;53.50;;;;;;5127887;27;45267;-71
2023/10/28 09:32:45;;;;;;;7.72;1.42;;;21.40;53.50;;;;;;5126896;27;45979;-69
2023/10/28 09:35:13;;;;;;;3.97;0.98;;;21.40;53.50;;;;;;5127851;27;45536;-70
2023/10/28 09:37:40;;;;;;;4.25;1.13;;;21.40;53.50;;;;;;5122229;27;45362;-69
2023/10/28 09:40:10;;;;;;;2.45;1.00;;;21.40;53.50;;;;;;5126971;27;45420;-72
2023/10/28 09:42:39;;;;;;;6.15;1.08;;;21.50;53.40;;;;;;5127463;27;45308;-71
2023/10/28 09:45:08;;;;;;;5.95;1.23;;;21.50;53.40;;;;;;5127909;27;45282;-71
2023/10/28 09:47:40;;;;;;;7.88;1.33;;;21.60;53.70;;;;;;5127683;27;46558;-73
2023/10/28 09:50:08;;;;;;;3.75;1.05;;;21.60;53.60;;;;;;5127637;27;45339;-72
2023/10/28 09:52:36;;;;;;;4.35;1.13;;;21.60;53.40;;;;;;5128428;27;45196;-70
2023/10/28 09:55:05;;;;;;;2.85;0.93;;;21.60;50.50;;;;;;5127868;27;45378;-72
2023/10/28 09:57:34;;;;;;;4.45;1.10;;;21.60;51.50;;;;;;5125165;27;45458;-72
2023/10/28 10:00:03;;;;;;;3.67;0.73;;;21.60;51.50;;;;;;5126718;27;45240;-70
2023/10/28 10:02:42;;;;;;;1.35;0.88;;;21.60;51.60;;;;;;5127452;27;45528;-74
2023/10/28 10:05:12;;;;;;;4.65;1.40;;;21.70;51.70;;;;;;5124148;27;45347;-73
2023/10/28 10:07:39;;;;;;;4.53;1.05;;;21.70;51.30;;;;;;5128118;27;47620;-73
2023/10/28 10:10:06;;;;;;;5.47;1.17;;;21.70;51.20;;;;;;5127752;27;45314;-73
2023/10/28 10:12:34;;;;;;;6.25;1.20;;;21.70;51.10;;;;;;5127997;27;45244;-74
2023/10/28 10:15:03;;;;;;;6.25;1.20;;;21.70;50.20;;;;;;5127191;27;45528;-72
2023/10/28 10:17:33;;;;;;;2.85;1.00;;;21.80;50.30;;;;;;5127855;27;46841;-72
2023/10/28 10:20:04;;;;;;;2.63;1.02;;;21.80;50.10;;;;;;5126713;27;45492;-72
2023/10/28 10:22:31;;;;;;;2.40;1.00;;;21.90;49.90;;;;;;5126101;27;45291;-69
2023/10/28 10:24:58;;;;;;;2.33;1.15;;;21.90;50.30;;;;;;5128371;27;45306;-69
2023/10/28 10:27:36;;;;;;;6.18;1.05;;;21.90;49.70;;;;;;5130514;27;45421;-73
2023/10/28 10:30:07;;;;;;;7.75;1.00;;;21.90;49.30;;;;;;5129618;27;45134;-73
2023/10/28 10:32:41;;;;;;;3.13;0.98;;;21.90;49.30;;;;;;5130966;27;45319;-72
2023/10/28 10:35:12;;;;;;;2.42;0.73;;;21.80;49.00;;;;;;5130367;27;45409;-72
2023/10/28 10:37:39;;;;;;;5.25;0.90;;;21.80;49.20;;;;;;5136138;27;47544;-71
2023/10/28 10:40:09;;;;;;;7.50;1.00;;;21.80;49.50;;;;;;5129712;27;45535;-73
2023/10/28 10:42:38;;;;;;;3.63;0.95;;;21.80;49.70;;;;;;5130597;27;45446;-70
2023/10/28 10:45:06;;;;;;;4.47;0.82;;;21.80;50.00;;;;;;5129735;27;45304;-69
2023/10/28 10:47:33;;;;;;;1.88;1.00;;;21.90;50.10;;;;;;5128960;27;46432;-72
2023/10/28 10:50:00;;;;;;;5.72;1.52;;;21.90;50.40;;;;;;5130094;27;45312;-71
2023/10/28 10:52:27;;;;;;;5.63;1.00;;;21.80;50.60;;;;;;5114150;27;45186;-71
2023/10/28 10:54:55;;;;;;;1.48;0.93;;;21.90;50.60;;;;;;5121519;27;45380;-70
2023/10/28 10:57:22;;;;;;;3.53;1.05;;;22.00;50.70;;;;;;5130635;27;46224;-72
2023/10/28 10:59:50;;;;;;;3.20;0.80;;;21.90;50.50;;;;;;5122787;27;45529;-68
2023/10/28 11:02:17;;;;;;;2.58;0.98;;;22.00;50.80;;;;;;5126652;27;45370;-73
2023/10/28 11:04:45;;;;;;;5.38;0.90;;;22.00;50.90;;;;;;5126301;27;45160;-72
2023/10/28 11:07:12;;;;;;;3.72;0.93;;;22.00;51.00;;;;;;5126496;27;46398;-72
2023/10/28 11:09:42;;;;;;;3.25;1.00;;;22.10;51.00;;;;;;5127038;27;45426;-71
2023/10/28 11:12:09;;;;;;;7.15;1.20;;;22.10;51.10;;;;;;5127241;27;45713;-72
2023/10/28 11:14:35;;;;;;;2.50;1.08;;;22.10;51.20;;;;;;5129263;27;45360;-71
2023/10/28 11:17:04;;;;;;;8.40;1.35;;;22.10;51.30;;;;;;5124956;27;46379;-72
2023/10/28 11:19:31;;;;;;;9.25;1.25;;;22.10;51.30;;;;;;5115489;27;45307;-72
2023/10/28 11:21:59;;;;;;;3.35;1.05;;;22.10;51.30;;;;;;5121922;27;45473;-72
2023/10/28 11:24:27;;;;;;;1.98;0.80;;;22.10;51.30;;;;;;5117782;27;45538;-71
2023/10/28 11:26:56;;;;;;;3.08;1.20;;;22.10;51.60;;;;;;5126386;27;45345;-72
2023/10/28 11:29:24;;;;;;;6.00;1.02;;;22.10;51.40;;;;;;5106912;27;45433;-70
2023/10/28 11:31:51;;;;;;;9.15;1.00;;;22.20;51.30;;;;;;5128963;27;45416;-70
2023/10/28 11:34:19;;;;;;;3.85;1.10;;;22.20;51.30;;;;;;5117505;27;45445;-68
2023/10/28 11:36:46;;;;;;;11.55;1.20;;;22.30;51.80;;;;;;5135394;27;46422;-67
2023/10/28 11:39:14;;;;;;;5.63;1.88;;;22.30;51.70;;;;;;5128634;27;45453;-70
2023/10/28 11:41:43;;;;;;;7.90;1.35;;;22.40;51.70;;;;;;5125579;27;45320;-69
2023/10/28 11:44:11;;;;;;;2.65;0.98;;;22.40;51.60;;;;;;5125247;27;45440;-69
2023/10/28 11:46:38;;;;;;;6.20;1.55;;;22.40;50.90;;;;;;5128572;27;45416;-70
2023/10/28 11:49:05;;;;;;;6.03;1.08;;;22.40;50.90;;;;;;5126149;27;45141;-70
2023/10/28 11:51:33;;;;;;;5.18;1.10;;;22.40;51.00;;;;;;5129418;27;45463;-70
2023/10/28 11:54:03;;;;;;;11.25;1.10;;;22.40;50.90;;;;;;5127506;27;45502;-69
2023/10/28 11:56:31;;;;;;;5.03;1.13;;;22.50;50.90;;;;;;5122646;27;46389;-69
2023/10/28 11:58:59;;;;;;;5.43;1.20;;;22.50;51.00;;;;;;5125639;27;45448;-70
2023/10/28 12:01:26;;;;;;;2.58;1.40;;;22.50;50.80;;;;;;5123764;27;45321;-72
2023/10/28 12:03:54;;;;;;;11.98;1.83;;;22.60;51.10;;;;;;5119125;27;45395;-71
2023/10/28 12:06:22;;;;;;;9.02;1.40;;;22.70;51.10;;;;;;5136538;27;46496;-67
2023/10/28 12:08:50;;;;;;;3.60;1.63;;;22.80;50.90;;;;;;5140996;27;46303;-68
2023/10/28 12:11:17;;;;;;;9.40;1.58;;;22.90;50.80;;;;;;5135542;27;45165;-67
2023/10/28 12:13:44;;;;;;;3.28;1.30;;;23.00;50.90;;;;;;5143511;27;45397;-69
2023/10/28 12:16:11;;;;;;;4.35;1.30;;;23.00;50.40;;;;;;5140735;27;45584;-69
2023/10/28 12:18:38;;;;;;;4.32;1.77;;;23.00;50.60;;;;;;5142626;27;45320;-66
2023/10/28 12:21:06;;;;;;;9.10;1.58;;;23.10;50.40;;;;;;5137464;27;45339;-67
2023/10/28 12:23:33;;;;;;;4.82;1.92;;;23.10;50.60;;;;;;5138610;27;45377;-70
2023/10/28 12:26:01;;;;;;;5.63;1.92;;;23.10;50.50;;;;;;5143657;27;46233;-70
2023/10/28 12:28:29;;;;;;;3.72;1.23;;;23.20;50.50;;;;;;5135960;27;45411;-68
2023/10/28 12:30:55;;;;;;;12.55;1.80;;;23.20;50.30;;;;;;5134421;27;45400;-66
2023/10/28 12:33:22;;;;;;;4.45;1.77;;;23.20;50.50;;;;;;5140685;27;45425;-67
2023/10/28 12:35:49;;;;;;;4.93;1.30;;;23.20;50.20;;;;;;5138723;27;46400;-68
2023/10/28 12:38:16;;;;;;;3.78;1.02;;;23.20;50.40;;;;;;5137263;27;45807;-68
2023/10/28 12:40:43;;;;;;;4.05;1.40;;;23.30;51.10;;;;;;5123003;27;45456;-68
2023/10/28 12:43:11;;;;;;;3.72;1.38;;;23.30;50.20;;;;;;5121688;27;45615;-71
2023/10/28 12:45:38;;;;;;;6.22;1.30;;;23.30;50.20;;;;;;5125790;27;46385;-67